Time;durP1;ratioP1;P1;durP2;ratioP2;P2;SDS_P1;SDS_P2;PMS_P1;PMS_P2;Temp;Humidity;BMP_temperature;BMP_pressure;BME280_temperature;BME280_humidity;BME280_pressure;Samples;Min_cycle;Max_cycle;Signal;HPM_P1;HPM_P2
2022/12/09 00:01:25;;;;;;;17.00;9.65;;;0.30;99.90;;;;;;5019314;28;20470;-38
2022/12/09 00:03:50;;;;;;;16.25;10.52;;;0.20;99.90;;;;;;5020119;28;20033;-33
2022/12/09 00:06:22;;;;;;;19.45;10.35;;;0.20;99.90;;;;;;5005389;28;20117;-33
2022/12/09 00:08:49;;;;;;;14.75;8.75;;;0.10;99.90;;;;;;5005676;28;20025;-36
2022/12/09 00:11:15;;;;;;;18.15;10.98;;;0.10;99.90;;;;;;5004416;28;20430;-36
2022/12/09 00:13:41;;;;;;;19.10;9.93;;;0.00;99.90;;;;;;5019535;28;20089;-36
2022/12/09 00:16:13;;;;;;;17.58;10.18;;;0.10;99.90;;;;;;5006045;28;20113;-31
2022/12/09 00:18:39;;;;;;;17.52;10.27;;;0.10;99.90;;;;;;5002735;28;20018;-36
2022/12/09 00:21:25;;;;;;;17.15;10.35;;;0.20;99.90;;;;;;5004176;28;20130;-36
2022/12/09 00:23:53;;;;;;;20.27;10.35;;;0.10;99.90;;;;;;5002815;28;21038;-36
2022/12/09 00:26:20;;;;;;;22.55;11.23;;;0.20;99.90;;;;;;5018222;28;20030;-33
2022/12/09 00:28:48;;;;;;;20.85;10.95;;;0.10;99.90;;;;;;5005641;28;20034;-34
2022/12/09 00:31:17;;;;;;;21.83;10.70;;;0.10;99.90;;;;;;5003242;28;20050;-37
2022/12/09 00:33:43;;;;;;;31.33;11.70;;;0.10;99.90;;;;;;5005425;28;20104;-36
2022/12/09 00:36:15;;;;;;;55.22;13.48;;;0.00;99.90;;;;;;4982802;28;20073;-38
2022/12/09 00:38:41;;;;;;;29.00;12.65;;;-0.10;99.90;;;;;;5001683;28;20037;-37
2022/12/09 00:41:07;;;;;;;26.45;10.27;;;-0.10;99.90;;;;;;5005656;28;20030;-34
2022/12/09 00:43:33;;;;;;;22.85;10.48;;;-0.10;99.90;;;;;;5003333;28;20543;-38
2022/12/09 00:45:59;;;;;;;21.05;10.68;;;-0.10;99.90;;;;;;5005707;28;20030;-38
2022/12/09 00:48:25;;;;;;;19.42;10.10;;;0.00;99.90;;;;;;5002201;28;20391;-36
2022/12/09 00:50:51;;;;;;;18.65;10.82;;;0.10;99.90;;;;;;5004321;28;20041;-34
2022/12/09 00:53:17;;;;;;;21.63;11.60;;;0.10;99.90;;;;;;5001666;28;20503;-37
2022/12/09 00:55:44;;;;;;;22.45;10.75;;;0.10;99.90;;;;;;5005265;28;20100;-33
2022/12/09 00:58:09;;;;;;;24.33;11.25;;;0.10;99.90;;;;;;5006454;28;20025;-38
2022/12/09 01:00:35;;;;;;;17.90;10.82;;;0.10;99.90;;;;;;5005486;28;20049;-36
2022/12/09 01:03:01;;;;;;;22.85;10.90;;;0.10;99.90;;;;;;4999573;28;20041;-36
2022/12/09 01:05:26;;;;;;;21.00;10.55;;;0.20;99.90;;;;;;5003489;28;20032;-35
2022/12/09 01:07:52;;;;;;;22.83;11.15;;;0.20;99.90;;;;;;5002357;28;20507;-37
2022/12/09 01:10:18;;;;;;;23.08;10.85;;;0.20;99.90;;;;;;5002050;28;20545;-38
2022/12/09 01:12:44;;;;;;;29.77;12.40;;;0.10;99.90;;;;;;5000237;28;20036;-31
2022/12/09 01:15:10;;;;;;;23.88;12.23;;;0.00;99.90;;;;;;4999978;28;20034;-38
2022/12/09 01:17:37;;;;;;;24.73;12.45;;;0.00;99.90;;;;;;5004954;28;20497;-34
2022/12/09 01:20:04;;;;;;;27.45;11.98;;;0.00;99.90;;;;;;5002716;28;20113;-37
2022/12/09 01:22:30;;;;;;;20.98;11.02;;;0.00;99.90;;;;;;5016081;28;20061;-35
2022/12/09 01:24:56;;;;;;;24.25;12.48;;;-0.10;99.90;;;;;;5003588;28;20058;-35
2022/12/09 01:27:21;;;;;;;24.73;12.07;;;0.00;99.90;;;;;;5002130;28;20053;-36
2022/12/09 01:29:47;;;;;;;20.30;11.40;;;0.00;99.90;;;;;;5003132;28;20033;-33
2022/12/09 01:32:12;;;;;;;19.70;11.07;;;0.00;99.90;;;;;;5003460;28;20404;-38
2022/12/09 01:34:38;;;;;;;20.05;11.27;;;0.00;99.90;;;;;;4998947;28;20035;-36
2022/12/09 01:37:04;;;;;;;19.17;9.82;;;0.10;99.90;;;;;;5003562;28;20475;-36
2022/12/09 01:39:29;;;;;;;16.20;8.82;;;0.10;99.90;;;;;;5004905;28;20022;-38
2022/12/09 01:41:55;;;;;;;16.73;9.60;;;0.20;99.90;;;;;;5005386;28;20095;-36
2022/12/09 01:44:25;;;;;;;18.70;10.82;;;0.20;99.90;;;;;;5006103;28;20033;-35
2022/12/09 01:46:55;;;;;;;22.60;11.02;;;0.20;99.90;;;;;;5007066;28;20097;-37
2022/12/09 01:49:26;;;;;;;20.30;10.65;;;0.20;99.90;;;;;;5005126;28;20057;-37
2022/12/09 01:52:13;;;;;;;21.15;11.02;;;0.20;99.90;;;;;;5008178;28;20053;-38
2022/12/09 01:54:42;;;;;;;20.17;10.43;;;0.30;99.90;;;;;;5007326;28;20032;-38
2022/12/09 01:57:07;;;;;;;;;;;0.20;99.90;;;;;;5005049;28;20121;-38
2022/12/09 01:59:33;;;;;;;15.88;8.90;;;0.20;99.90;;;;;;5009192;28;20004;-38
2022/12/09 02:02:01;;;;;;;25.60;11.05;;;0.20;99.90;;;;;;5024604;28;20561;-41
2022/12/09 02:04:28;;;;;;;19.95;11.13;;;0.20;99.90;;;;;;5004215;28;20084;-40
2022/12/09 02:06:54;;;;;;;17.88;10.10;;;0.10;99.90;;;;;;5015157;28;20080;-40
2022/12/09 02:09:20;;;;;;;26.52;12.18;;;0.10;99.90;;;;;;5005757;28;20058;-40
2022/12/09 02:12:04;;;;;;;25.98;12.45;;;0.10;99.90;;;;;;5019043;28;20507;-42
2022/12/09 02:14:50;;;;;;;24.38;12.13;;;0.10;99.90;;;;;;5021482;28;20022;-39
2022/12/09 02:17:40;;;;;;;30.77;13.68;;;0.20;99.90;;;;;;5000105;28;20453;-39
2022/12/09 02:20:11;;;;;;;20.60;10.85;;;0.10;99.90;;;;;;5023825;28;20040;-38
2022/12/09 02:22:43;;;;;;;25.02;12.07;;;0.10;99.90;;;;;;5004310;28;20074;-42
2022/12/09 02:25:29;;;;;;;29.83;13.30;;;0.20;99.90;;;;;;5007856;28;20104;-42
2022/12/09 02:28:16;;;;;;;25.73;12.45;;;0.20;99.90;;;;;;5005668;28;20033;-41
2022/12/09 02:31:13;;;;;;;20.40;11.52;;;0.10;99.90;;;;;;5009680;28;20041;-41
2022/12/09 02:34:04;;;;;;;26.20;13.20;;;0.10;99.90;;;;;;4937380;28;20081;-42
2022/12/09 02:36:37;;;;;;;26.30;11.90;;;0.20;99.90;;;;;;5004110;28;20026;-41
2022/12/09 02:39:05;;;;;;;20.35;13.05;;;0.20;99.90;;;;;;5005372;28;20034;-40
2022/12/09 02:41:32;;;;;;;27.33;11.95;;;0.20;99.90;;;;;;5006511;28;20117;-40
2022/12/09 02:44:12;;;;;;;19.17;11.53;;;0.30;99.90;;;;;;5008208;28;20017;-41
2022/12/09 02:46:41;;;;;;;24.65;12.35;;;0.30;99.90;;;;;;5006494;28;20026;-42
2022/12/09 02:49:07;;;;;;;26.20;12.18;;;0.30;99.90;;;;;;5006267;28;20136;-36
2022/12/09 02:51:35;;;;;;;26.75;13.75;;;0.30;99.90;;;;;;5002363;28;20565;-41
2022/12/09 02:54:23;;;;;;;35.42;16.55;;;0.30;99.90;;;;;;5003351;28;20030;-41
2022/12/09 02:56:56;;;;;;;27.65;12.68;;;0.20;99.90;;;;;;5005607;28;20112;-42
2022/12/09 02:59:22;;;;;;;33.17;14.27;;;0.20;99.90;;;;;;5006514;28;20036;-42
2022/12/09 03:01:57;;;;;;;29.95;13.45;;;0.20;99.90;;;;;;5004279;28;20034;-41
2022/12/09 03:04:25;;;;;;;24.45;12.25;;;0.20;99.90;;;;;;5005532;28;20033;-40
2022/12/09 03:06:52;;;;;;;;;;;0.10;99.90;;;;;;5006146;28;20045;-42
2022/12/09 03:09:33;;;;;;;27.30;12.15;;;0.20;99.90;;;;;;5001251;28;20392;-38
2022/12/09 03:12:06;;;;;;;28.13;14.30;;;0.10;99.90;;;;;;5003787;28;20075;-41
2022/12/09 03:14:39;;;;;;;35.90;15.57;;;0.10;99.90;;;;;;5005553;28;20034;-42
2022/12/09 03:17:17;;;;;;;32.38;13.85;;;0.10;99.90;;;;;;5007202;28;20088;-36
2022/12/09 03:20:00;;;;;;;30.10;14.98;;;0.10;99.90;;;;;;5004352;28;20041;-40
2022/12/09 03:22:30;;;;;;;29.80;15.98;;;0.10;99.90;;;;;;4992049;28;20128;-34
2022/12/09 03:25:21;;;;;;;34.42;14.70;;;0.10;99.90;;;;;;4995265;28;20092;-41
2022/12/09 03:27:55;;;;;;;28.38;13.45;;;0.10;99.90;;;;;;5017967;28;20034;-41
2022/12/09 03:30:20;;;;;;;25.45;11.73;;;0.10;99.90;;;;;;5003874;28;20148;-41
2022/12/09 03:32:46;;;;;;;31.00;12.50;;;0.10;99.90;;;;;;5004514;28;20557;-40
2022/12/09 03:35:20;;;;;;;29.08;14.27;;;0.10;99.90;;;;;;5019622;28;20402;-39
2022/12/09 03:37:48;;;;;;;27.38;12.68;;;0.10;99.90;;;;;;4999059;28;20030;-38
2022/12/09 03:40:18;;;;;;;25.80;12.52;;;0.20;99.90;;;;;;4986985;28;20061;-37
2022/12/09 03:42:51;;;;;;;27.30;13.43;;;0.20;99.90;;;;;;4987690;28;20387;-36
2022/12/09 03:45:19;;;;;;;31.02;13.70;;;0.20;99.90;;;;;;4988985;28;20034;-42
2022/12/09 03:47:45;;;;;;;34.13;15.18;;;0.20;99.90;;;;;;4989594;28;20026;-33
2022/12/09 03:50:12;;;;;;;35.25;15.57;;;0.20;99.90;;;;;;4984191;28;20037;-35
2022/12/09 03:52:52;;;;;;;24.45;13.20;;;0.20;99.90;;;;;;4988839;28;20030;-37
2022/12/09 03:55:32;;;;;;;26.60;12.98;;;0.20;99.90;;;;;;4986449;28;20506;-42
2022/12/09 03:58:00;;;;;;;27.80;13.18;;;0.20;99.90;;;;;;4991463;28;20033;-38
2022/12/09 04:00:26;;;;;;;27.17;12.68;;;0.10;99.90;;;;;;4991444;28;22467;-40
2022/12/09 04:02:51;;;;;;;24.95;12.45;;;0.20;99.90;;;;;;4990342;28;20033;-36
2022/12/09 04:05:17;;;;;;;22.02;12.55;;;0.20;99.90;;;;;;4986220;28;20510;-39
2022/12/09 04:07:43;;;;;;;23.50;12.23;;;0.20;99.90;;;;;;4986502;28;20062;-39
2022/12/09 04:10:08;;;;;;;21.40;12.25;;;0.30;99.90;;;;;;4991803;28;20113;-36
2022/12/09 04:12:34;;;;;;;19.85;10.30;;;0.30;99.90;;;;;;4987996;28;20038;-43
2022/12/09 04:15:00;;;;;;;24.48;12.70;;;0.30;99.90;;;;;;4990953;28;20033;-36
2022/12/09 04:17:25;;;;;;;22.92;13.15;;;0.30;99.90;;;;;;4987770;28;20032;-42
2022/12/09 04:19:51;;;;;;;20.70;11.23;;;0.30;99.90;;;;;;4986866;28;20033;-39
2022/12/09 04:22:16;;;;;;;21.52;12.40;;;0.30;99.90;;;;;;4986793;28;20034;-35
2022/12/09 04:24:42;;;;;;;19.73;10.93;;;0.40;99.90;;;;;;4991216;28;20034;-39
2022/12/09 04:27:10;;;;;;;21.80;12.20;;;0.40;99.90;;;;;;4989391;28;20025;-40
2022/12/09 04:29:36;;;;;;;27.63;13.27;;;0.40;99.90;;;;;;4988422;28;20038;-35
2022/12/09 04:32:01;;;;;;;23.10;11.60;;;0.30;99.90;;;;;;4988148;28;20529;-39
2022/12/09 04:34:27;;;;;;;19.00;10.90;;;0.30;99.90;;;;;;4990535;28;20033;-42
2022/12/09 04:36:52;;;;;;;27.30;13.88;;;0.30;99.90;;;;;;4989145;28;20034;-38
2022/12/09 04:39:18;;;;;;;24.50;12.57;;;0.20;99.90;;;;;;4988952;28;20041;-34
2022/12/09 04:41:44;;;;;;;26.02;14.07;;;0.20;99.90;;;;;;4988027;28;20108;-37
2022/12/09 04:44:09;;;;;;;26.88;12.20;;;0.20;99.90;;;;;;4991557;28;20050;-38
2022/12/09 04:46:35;;;;;;;29.45;13.35;;;0.20;99.90;;;;;;5001619;28;20054;-36
2022/12/09 04:49:01;;;;;;;21.98;11.48;;;0.20;99.90;;;;;;4986276;28;20034;-38
2022/12/09 04:51:26;;;;;;;23.75;12.23;;;0.20;99.90;;;;;;4988074;28;20038;-39
2022/12/09 04:53:52;;;;;;;33.13;12.50;;;0.20;99.90;;;;;;4990071;28;20038;-33
2022/12/09 04:56:21;;;;;;;25.38;14.25;;;0.20;99.90;;;;;;4988532;28;20585;-39
2022/12/09 04:58:47;;;;;;;;;;;0.20;99.90;;;;;;4987903;28;20025;-34
2022/12/09 05:01:16;;;;;;;24.98;13.32;;;0.20;99.90;;;;;;4986438;28;19918;-38
2022/12/09 05:03:42;;;;;;;27.98;13.85;;;0.10;99.90;;;;;;4987812;28;20053;-40
2022/12/09 05:06:12;;;;;;;26.63;13.75;;;0.10;99.90;;;;;;4987860;28;20025;-37
2022/12/09 05:08:39;;;;;;;27.65;13.10;;;0.20;99.90;;;;;;4986388;28;20092;-39
2022/12/09 05:11:05;;;;;;;25.67;12.52;;;0.20;99.90;;;;;;4986607;28;20026;-37
2022/12/09 05:13:31;;;;;;;29.05;14.20;;;0.20;99.90;;;;;;4986490;28;20515;-37
2022/12/09 05:16:06;;;;;;;27.08;12.65;;;0.20;99.90;;;;;;4984970;28;20399;-38
2022/12/09 05:18:32;;;;;;;23.20;12.02;;;0.20;99.90;;;;;;4987820;28;20467;-35
2022/12/09 05:20:57;;;;;;;26.25;13.32;;;0.20;99.90;;;;;;4987705;28;20061;-38
2022/12/09 05:23:23;;;;;;;26.90;12.00;;;0.20;99.90;;;;;;4986999;28;20234;-38
2022/12/09 05:25:49;;;;;;;22.17;11.13;;;0.20;99.90;;;;;;4989380;28;20124;-40
2022/12/09 05:28:15;;;;;;;19.02;10.80;;;0.20;99.90;;;;;;4988645;28;20117;-35
2022/12/09 05:30:41;;;;;;;21.83;11.35;;;0.20;99.90;;;;;;4985565;28;20061;-35
2022/12/09 05:33:06;;;;;;;23.65;12.30;;;0.20;99.90;;;;;;4986962;28;20091;-36
2022/12/09 05:35:32;;;;;;;20.48;11.77;;;0.20;99.90;;;;;;4989804;28;20523;-34
2022/12/09 05:37:58;;;;;;;28.20;13.50;;;0.20;99.90;;;;;;4984321;28;20026;-37
2022/12/09 05:40:24;;;;;;;25.92;12.25;;;0.20;99.90;;;;;;4985985;28;20042;-38
2022/12/09 05:42:49;;;;;;;24.52;12.43;;;0.20;99.90;;;;;;4987317;28;20455;-39
2022/12/09 05:45:15;;;;;;;30.58;13.15;;;0.20;99.90;;;;;;4990207;28;20034;-38
2022/12/09 05:47:41;;;;;;;23.80;12.95;;;0.20;99.90;;;;;;4985103;28;20025;-36
2022/12/09 05:50:07;;;;;;;19.38;10.70;;;0.20;99.90;;;;;;4985081;28;20034;-39
2022/12/09 05:52:34;;;;;;;20.55;11.93;;;0.20;99.90;;;;;;4988248;28;20057;-41
2022/12/09 05:55:08;;;;;;;24.05;11.88;;;0.20;99.90;;;;;;4987192;28;20061;-36
2022/12/09 05:57:34;;;;;;;19.02;10.60;;;0.20;99.90;;;;;;4986092;28;20140;-34
2022/12/09 06:00:00;;;;;;;23.55;12.60;;;0.30;99.90;;;;;;4985740;28;20426;-37
2022/12/09 06:02:25;;;;;;;22.20;11.55;;;0.30;99.90;;;;;;4999620;28;20030;-37
2022/12/09 06:04:51;;;;;;;22.88;13.50;;;0.30;99.90;;;;;;4988880;28;20088;-37
2022/12/09 06:07:17;;;;;;;24.00;12.90;;;0.30;99.90;;;;;;4986879;28;20058;-40
2022/12/09 06:09:43;;;;;;;24.25;10.55;;;0.30;99.90;;;;;;4985964;28;20040;-37
2022/12/09 06:12:09;;;;;;;19.73;11.38;;;0.30;99.90;;;;;;4986731;28;20116;-39
2022/12/09 06:14:35;;;;;;;23.88;13.68;;;0.30;99.90;;;;;;4987566;28;20724;-39
2022/12/09 06:17:00;;;;;;;24.80;11.73;;;0.30;99.90;;;;;;4989424;28;20049;-35
2022/12/09 06:19:26;;;;;;;24.83;12.45;;;0.20;99.90;;;;;;4983837;28;20087;-32
2022/12/09 06:21:52;;;;;;;25.63;12.52;;;0.20;99.90;;;;;;4985344;28;20941;-40
2022/12/09 06:24:17;;;;;;;20.67;10.98;;;0.30;99.90;;;;;;4987423;28;20033;-35
2022/12/09 06:26:43;;;;;;;20.90;11.68;;;0.30;99.90;;;;;;4991792;28;20557;-34
2022/12/09 06:29:08;;;;;;;25.10;13.73;;;0.30;99.90;;;;;;4989990;28;20064;-32
2022/12/09 06:31:34;;;;;;;24.60;11.45;;;0.30;99.90;;;;;;4989756;28;20503;-37
2022/12/09 06:34:00;;;;;;;26.58;13.48;;;0.30;99.90;;;;;;4990264;28;20373;-36
2022/12/09 06:36:28;;;;;;;25.13;12.93;;;0.30;99.90;;;;;;4994358;28;20072;-32
2022/12/09 06:38:55;;;;;;;24.47;12.50;;;0.30;99.90;;;;;;4989986;28;20034;-34
2022/12/09 06:41:20;;;;;;;25.10;12.73;;;0.30;99.90;;;;;;4989375;28;20371;-35
2022/12/09 06:43:46;;;;;;;21.33;11.15;;;0.30;99.90;;;;;;5007273;28;20120;-37
2022/12/09 06:46:15;;;;;;;19.27;11.23;;;0.30;99.90;;;;;;5008782;28;20497;-38
2022/12/09 06:48:41;;;;;;;18.42;10.80;;;0.30;99.90;;;;;;4999520;28;20033;-31
2022/12/09 06:51:07;;;;;;;22.63;12.80;;;0.40;99.90;;;;;;4993641;28;20068;-36
2022/12/09 06:53:33;;;;;;;23.10;12.63;;;0.40;99.90;;;;;;4990206;28;20030;-37
2022/12/09 06:56:03;;;;;;;22.10;11.98;;;0.40;99.90;;;;;;4998259;28;20495;-37
2022/12/09 06:58:30;;;;;;;20.00;11.88;;;0.40;99.90;;;;;;4999488;28;20033;-37
2022/12/09 07:01:07;;;;;;;28.70;13.82;;;0.40;99.90;;;;;;5007651;28;20034;-38
2022/12/09 07:03:33;;;;;;;25.65;13.43;;;0.40;99.90;;;;;;5005247;28;20040;-39
2022/12/09 07:06:01;;;;;;;22.60;11.52;;;0.40;99.90;;;;;;5004640;28;20030;-38
2022/12/09 07:08:27;;;;;;;19.38;10.73;;;0.40;99.90;;;;;;5003045;28;20824;-31
2022/12/09 07:10:53;;;;;;;21.17;11.48;;;0.40;99.90;;;;;;5003128;28;20045;-36
2022/12/09 07:13:18;;;;;;;18.67;11.60;;;0.40;99.90;;;;;;5006179;28;20399;-36
2022/12/09 07:15:44;;;;;;;23.80;13.20;;;0.40;99.90;;;;;;5007146;28;20387;-38
2022/12/09 07:18:09;;;;;;;25.67;12.50;;;0.50;99.90;;;;;;5004682;28;20013;-38
2022/12/09 07:20:35;;;;;;;22.65;12.63;;;0.50;99.90;;;;;;5004120;28;20052;-35
2022/12/09 07:23:01;;;;;;;22.90;12.50;;;0.50;99.90;;;;;;5002005;28;20042;-32
2022/12/09 07:25:26;;;;;;;20.98;12.18;;;0.50;99.90;;;;;;4990105;28;20383;-33
2022/12/09 07:27:52;;;;;;;19.40;10.38;;;0.50;99.90;;;;;;4991196;28;20033;-37
2022/12/09 07:30:17;;;;;;;25.17;11.70;;;0.50;99.90;;;;;;4989626;28;20124;-32
2022/12/09 07:32:43;;;;;;;25.95;14.18;;;0.50;99.90;;;;;;4991477;28;20117;-35
2022/12/09 07:35:09;;;;;;;26.70;13.85;;;0.50;99.90;;;;;;4989993;28;20022;-33
2022/12/09 07:37:35;;;;;;;22.65;11.20;;;0.50;99.90;;;;;;4993122;28;20097;-38
2022/12/09 07:40:01;;;;;;;22.75;10.73;;;0.50;99.90;;;;;;5000292;28;20037;-36
2022/12/09 07:42:26;;;;;;;23.80;10.45;;;0.50;99.90;;;;;;5006679;28;20746;-35
2022/12/09 07:44:52;;;;;;;18.73;10.82;;;0.50;99.90;;;;;;5008234;28;20030;-37
2022/12/09 07:47:18;;;;;;;21.17;10.95;;;0.60;99.90;;;;;;5002243;28;20399;-38
2022/12/09 07:49:43;;;;;;;24.63;12.75;;;0.60;99.90;;;;;;5004628;28;20116;-33
2022/12/09 07:52:09;;;;;;;21.55;11.40;;;0.50;99.90;;;;;;5003757;28;20030;-38
2022/12/09 07:54:34;;;;;;;21.50;11.63;;;0.60;99.90;;;;;;5001936;28;20471;-38
2022/12/09 07:57:00;;;;;;;25.25;11.60;;;0.50;99.90;;;;;;5004461;28;20495;-32
2022/12/09 07:59:26;;;;;;;18.42;10.00;;;0.50;99.90;;;;;;5015133;28;20026;-36
2022/12/09 08:01:51;;;;;;;23.35;12.77;;;0.60;99.90;;;;;;5006188;28;20038;-37
2022/12/09 08:04:17;;;;;;;22.52;12.52;;;0.60;99.90;;;;;;5003540;28;20025;-38
2022/12/09 08:06:43;;;;;;;19.65;11.32;;;0.60;99.90;;;;;;5003597;28;20077;-34
2022/12/09 08:09:11;;;;;;;22.73;11.57;;;0.50;99.90;;;;;;5004013;28;20590;-37
2022/12/09 08:11:37;;;;;;;;;;;0.50;99.90;;;;;;5004720;28;20037;-38
2022/12/09 08:14:05;;;;;;;15.43;8.60;;;0.50;99.90;;;;;;5003546;28;20437;-38
2022/12/09 08:16:32;;;;;;;20.05;9.50;;;0.60;99.90;;;;;;5005301;28;20027;-34
2022/12/09 08:18:57;;;;;;;22.77;9.95;;;0.60;99.90;;;;;;5004140;28;20415;-37
2022/12/09 08:21:26;;;;;;;19.45;10.25;;;0.60;99.90;;;;;;5003737;28;20045;-38
2022/12/09 08:23:53;;;;;;;17.13;9.25;;;0.60;99.90;;;;;;5006104;28;20499;-38
2022/12/09 08:26:21;;;;;;;17.67;8.63;;;0.60;99.90;;;;;;5000062;28;20061;-34
2022/12/09 08:28:47;;;;;;;15.98;10.23;;;0.60;99.90;;;;;;5003455;28;20034;-36
2022/12/09 08:31:15;;;;;;;18.80;9.50;;;0.70;99.90;;;;;;5005992;28;20042;-37
2022/12/09 08:33:42;;;;;;;21.98;11.55;;;0.60;99.90;;;;;;5000946;28;20052;-35
2022/12/09 08:36:14;;;;;;;15.32;8.13;;;0.60;99.90;;;;;;5005116;28;20034;-36
2022/12/09 08:38:39;;;;;;;17.05;9.18;;;0.60;99.90;;;;;;5002025;28;20419;-37
2022/12/09 08:41:14;;;;;;;17.38;10.00;;;0.60;99.90;;;;;;5004882;28;20044;-37
2022/12/09 08:43:40;;;;;;;21.27;10.68;;;0.60;99.90;;;;;;5003253;28;20022;-35
2022/12/09 08:46:06;;;;;;;19.15;10.13;;;0.60;99.90;;;;;;5003351;28;20034;-35
2022/12/09 08:48:35;;;;;;;21.13;10.93;;;0.60;99.90;;;;;;5000794;28;20033;-37
2022/12/09 08:51:01;;;;;;;19.42;10.02;;;0.60;99.90;;;;;;5001749;28;20117;-37
2022/12/09 08:53:26;;;;;;;18.85;11.35;;;0.60;99.90;;;;;;5005417;28;20437;-34
2022/12/09 08:55:52;;;;;;;21.40;11.07;;;0.60;99.90;;;;;;5003205;28;20049;-36
2022/12/09 08:58:17;;;;;;;17.13;10.57;;;0.60;99.90;;;;;;5002751;28;20042;-39
2022/12/09 09:00:43;;;;;;;17.90;10.77;;;0.60;99.90;;;;;;5001440;28;20033;-37
2022/12/09 09:03:08;;;;;;;21.73;11.98;;;0.70;99.90;;;;;;5004864;28;20042;-36
2022/12/09 09:05:34;;;;;;;20.08;10.38;;;0.60;99.90;;;;;;5000569;28;20551;-38
2022/12/09 09:08:00;;;;;;;24.40;13.05;;;0.70;99.90;;;;;;5000950;28;20111;-38
2022/12/09 09:10:25;;;;;;;19.90;11.82;;;0.70;99.90;;;;;;5003116;28;20026;-32
2022/12/09 09:12:51;;;;;;;24.67;12.73;;;0.70;99.90;;;;;;5003341;28;20075;-37
2022/12/09 09:15:17;;;;;;;24.33;11.73;;;0.80;99.90;;;;;;5004668;28;20018;-38
2022/12/09 09:17:42;;;;;;;25.02;12.35;;;0.80;99.90;;;;;;5004472;28;20461;-34
2022/12/09 09:20:08;;;;;;;20.27;10.95;;;0.80;99.90;;;;;;5005625;28;20177;-38
2022/12/09 09:22:34;;;;;;;26.20;13.88;;;0.80;99.90;;;;;;5002977;28;20479;-37
2022/12/09 09:24:59;;;;;;;22.50;11.15;;;0.80;99.90;;;;;;5003821;28;20403;-37
2022/12/09 09:27:25;;;;;;;24.25;13.60;;;0.80;99.90;;;;;;5003819;28;20036;-34
2022/12/09 09:29:50;;;;;;;22.27;11.45;;;0.80;99.90;;;;;;4999566;28;20031;-34
2022/12/09 09:32:16;;;;;;;30.45;14.90;;;0.80;99.90;;;;;;5001713;28;20097;-36
2022/12/09 09:34:42;;;;;;;22.73;12.18;;;0.80;99.90;;;;;;5006988;28;20037;-37
2022/12/09 09:37:07;;;;;;;20.45;11.40;;;0.80;99.90;;;;;;5002076;28;20030;-38
2022/12/09 09:39:33;;;;;;;23.70;11.82;;;0.80;99.90;;;;;;5003096;28;20037;-38
2022/12/09 09:42:00;;;;;;;23.88;13.00;;;0.80;99.90;;;;;;5004806;28;20033;-37
2022/12/09 09:44:47;;;;;;;22.20;11.80;;;0.80;99.90;;;;;;5003590;28;20101;-32
2022/12/09 09:47:36;;;;;;;26.42;13.80;;;0.80;99.90;;;;;;5001768;28;20096;-32
2022/12/09 09:50:05;;;;;;;21.88;12.02;;;0.70;99.90;;;;;;5003596;28;20029;-35
2022/12/09 09:52:33;;;;;;;26.33;14.02;;;0.80;99.90;;;;;;5003737;28;20523;-37
2022/12/09 09:55:13;;;;;;;28.40;14.27;;;0.80;99.90;;;;;;5001871;28;20025;-36
2022/12/09 09:57:49;;;;;;;24.38;12.50;;;0.80;99.90;;;;;;5006464;28;20026;-38
2022/12/09 10:00:33;;;;;;;26.00;13.15;;;0.70;99.90;;;;;;5002646;28;20434;-35
2022/12/09 10:03:13;;;;;;;25.60;14.50;;;0.70;99.90;;;;;;5005568;28;20034;-38
2022/12/09 10:05:59;;;;;;;19.83;10.95;;;0.80;99.90;;;;;;5005833;28;20521;-38
2022/12/09 10:08:37;;;;;;;26.70;13.52;;;0.80;99.90;;;;;;5003882;28;20042;-38
2022/12/09 10:11:24;;;;;;;26.30;12.93;;;0.90;99.90;;;;;;5008526;28;20037;-36
2022/12/09 10:14:01;;;;;;;28.20;13.55;;;0.90;99.90;;;;;;5007532;28;20057;-38
2022/12/09 10:16:41;;;;;;;22.30;12.48;;;1.00;99.90;;;;;;5008167;28;20057;-37
2022/12/09 10:19:18;;;;;;;28.30;14.02;;;0.90;99.90;;;;;;5005105;28;20030;-35
2022/12/09 10:21:45;;;;;;;29.80;14.77;;;0.90;99.90;;;;;;5009391;28;20061;-37
2022/12/09 10:24:27;;;;;;;24.75;14.15;;;0.90;99.90;;;;;;5007064;28;20034;-36
2022/12/09 10:27:22;;;;;;;27.90;12.70;;;1.00;99.90;;;;;;5009905;28;20034;-33
2022/12/09 10:29:56;;;;;;;26.75;14.45;;;1.00;99.90;;;;;;5003654;28;20034;-38
2022/12/09 10:32:25;;;;;;;31.98;15.65;;;1.00;99.90;;;;;;5008320;28;20372;-39
2022/12/09 10:34:51;;;;;;;32.88;15.65;;;1.00;99.90;;;;;;5001640;28;20033;-36
2022/12/09 10:37:27;;;;;;;23.23;13.52;;;1.00;99.90;;;;;;5009083;28;20034;-37
2022/12/09 10:40:00;;;;;;;23.90;12.23;;;1.00;99.90;;;;;;5014766;28;20027;-36
2022/12/09 10:45:11;;;;;;;26.33;14.60;;;1.00;99.90;;;;;;5003968;28;20137;-38
2022/12/09 10:47:37;;;;;;;29.13;15.35;;;1.00;99.90;;;;;;5008345;28;20025;-38
2022/12/09 10:50:05;;;;;;;25.15;14.05;;;1.00;99.90;;;;;;5004682;28;20061;-38
2022/12/09 10:52:41;;;;;;;28.83;14.02;;;1.00;99.90;;;;;;5007101;28;20030;-36
2022/12/09 10:55:25;;;;;;;27.20;13.57;;;1.00;99.90;;;;;;5002223;28;20479;-38
2022/12/09 10:58:18;;;;;;;24.58;13.13;;;1.00;99.90;;;;;;5005257;28;20658;-34
2022/12/09 11:00:59;;;;;;;29.33;14.65;;;1.10;99.90;;;;;;5006757;28;20442;-36
2022/12/09 11:03:39;;;;;;;22.25;11.60;;;1.10;99.90;;;;;;5002094;28;20022;-38
2022/12/09 11:06:25;;;;;;;24.98;14.07;;;1.20;99.90;;;;;;5021648;28;20033;-38
2022/12/09 11:08:58;;;;;;;23.48;12.15;;;1.10;99.90;;;;;;5001605;28;20042;-37
2022/12/09 11:11:46;;;;;;;27.90;14.20;;;1.20;99.90;;;;;;5007459;28;20034;-34
2022/12/09 11:14:35;;;;;;;30.10;17.17;;;1.10;99.90;;;;;;5000598;28;20034;-36
2022/12/09 11:17:20;;;;;;;26.50;13.02;;;1.10;99.90;;;;;;5007700;28;20839;-33
2022/12/09 11:19:50;;;;;;;28.58;14.82;;;1.10;99.90;;;;;;5005585;28;20026;-33
2022/12/09 11:22:38;;;;;;;34.90;17.13;;;1.20;99.90;;;;;;5006560;28;20038;-30
2022/12/09 11:25:23;;;;;;;34.65;16.13;;;1.20;99.90;;;;;;5005813;28;20038;-34
2022/12/09 11:27:57;;;;;;;42.53;16.90;;;1.30;99.90;;;;;;5005762;28;20041;-37
2022/12/09 11:30:30;;;;;;;54.17;22.23;;;1.30;99.90;;;;;;5004196;28;20036;-36
2022/12/09 11:32:59;;;;;;;31.13;14.20;;;1.30;99.90;;;;;;5004709;28;20143;-30
2022/12/09 11:35:35;;;;;;;24.25;14.05;;;1.20;99.90;;;;;;5002485;28;20057;-35
2022/12/09 11:38:30;;;;;;;29.17;15.90;;;1.30;99.90;;;;;;5005930;28;20034;-36
2022/12/09 11:41:14;;;;;;;27.58;13.57;;;1.30;99.90;;;;;;4998966;28;20326;-37
2022/12/09 11:43:48;;;;;;;30.45;13.98;;;1.30;99.90;;;;;;5007240;28;20029;-38
2022/12/09 11:46:20;;;;;;;24.67;12.88;;;1.30;99.90;;;;;;5004326;28;20042;-35
2022/12/09 11:48:54;;;;;;;34.65;15.40;;;1.30;99.90;;;;;;5005300;28;20026;-35
2022/12/09 11:51:36;;;;;;;31.27;15.32;;;1.30;99.90;;;;;;5005658;28;20025;-37
2022/12/09 11:54:17;;;;;;;28.85;14.85;;;1.40;99.90;;;;;;5008342;28;20044;-38
2022/12/09 11:56:42;;;;;;;32.25;14.40;;;1.40;99.90;;;;;;5005013;28;20392;-37
2022/12/09 11:59:12;;;;;;;28.27;14.05;;;1.40;99.90;;;;;;5005183;28;20033;-38
2022/12/09 12:01:51;;;;;;;33.92;15.75;;;1.40;99.90;;;;;;5006197;28;20038;-33
2022/12/09 12:04:36;;;;;;;30.48;14.13;;;1.40;99.90;;;;;;5006296;28;20034;-36
2022/12/09 12:07:09;;;;;;;34.50;16.17;;;1.40;99.90;;;;;;5003741;28;20574;-37
2022/12/09 12:09:56;;;;;;;30.83;15.80;;;1.40;99.90;;;;;;5006367;28;20404;-37
2022/12/09 12:12:45;;;;;;;27.42;14.95;;;1.40;99.90;;;;;;5003690;28;20034;-36
2022/12/09 12:15:20;;;;;;;37.05;16.55;;;1.40;99.90;;;;;;5003313;28;20487;-37
2022/12/09 12:17:53;;;;;;;31.20;14.68;;;1.30;99.90;;;;;;5002699;28;20511;-37
2022/12/09 12:20:24;;;;;;;33.28;15.23;;;1.30;99.90;;;;;;5003947;28;20117;-38
2022/12/09 12:23:17;;;;;;;37.38;16.48;;;1.30;99.90;;;;;;5005358;28;20032;-35
2022/12/09 12:26:01;;;;;;;30.90;14.63;;;1.30;99.90;;;;;;5007467;28;20042;-34
2022/12/09 12:28:52;;;;;;;32.53;16.08;;;1.30;99.90;;;;;;5003040;28;20029;-37
2022/12/09 12:31:48;;;;;;;32.20;15.70;;;1.30;99.90;;;;;;5004155;28;20053;-37
2022/12/09 12:34:20;;;;;;;27.08;13.52;;;1.30;99.90;;;;;;5007098;28;20573;-36
2022/12/09 12:37:11;;;;;;;28.05;14.02;;;1.40;99.90;;;;;;5003237;28;20574;-34
2022/12/09 12:40:08;;;;;;;36.58;15.93;;;1.40;99.90;;;;;;5003955;28;20053;-38
2022/12/09 12:48:43;;;;;;;25.77;13.95;;;1.40;99.90;;;;;;5003199;28;20049;-33
2022/12/09 12:51:32;;;;;;;30.75;14.07;;;1.30;99.90;;;;;;5001294;28;20041;-37
2022/12/09 12:54:20;;;;;;;30.75;14.82;;;1.30;99.90;;;;;;5002820;28;20045;-37
2022/12/09 12:56:58;;;;;;;29.52;15.25;;;1.30;99.90;;;;;;5006151;28;20506;-33
2022/12/09 12:59:52;;;;;;;31.20;15.35;;;1.30;99.90;;;;;;4999239;28;20384;-37
2022/12/09 13:02:30;;;;;;;28.52;16.75;;;1.30;99.90;;;;;;4999930;28;20092;-37
2022/12/09 13:05:18;;;;;;;31.40;17.33;;;1.30;99.90;;;;;;5005414;28;20476;-33